Time;durP1;ratioP1;P1;durP2;ratioP2;P2;SDS_P1;SDS_P2;PMS_P1;PMS_P2;Temp;Humidity;BMP_temperature;BMP_pressure;BME280_temperature;BME280_humidity;BME280_pressure;Samples;Min_cycle;Max_cycle;Signal;HPM_P1;HPM_P2
2023/01/28 00:01:46;;;;;;;26.80;12.40;;;-1.90;99.90;;;;;;4147837;28;20519;-67
2023/01/28 00:03:52;;;;;;;34.90;14.80;;;-1.70;99.90;;;;;;4104708;28;20441;-68
2023/01/28 00:06:05;;;;;;;35.90;13.23;;;-1.80;99.90;;;;;;4147082;28;20277;-68
2023/01/28 00:08:07;;;;;;;27.80;11.47;;;-1.90;99.90;;;;;;4164215;28;20505;-66
2023/01/28 00:10:08;;;;;;;35.23;13.60;;;-2.00;99.90;;;;;;4164060;28;20819;-67
2023/01/28 00:12:09;;;;;;;37.90;14.27;;;-2.10;99.90;;;;;;4162257;28;20510;-68
2023/01/28 00:14:11;;;;;;;34.87;14.87;;;-2.10;99.90;;;;;;4172105;28;20442;-68
2023/01/28 00:16:12;;;;;;;43.73;15.63;;;-1.90;99.90;;;;;;4167626;28;20654;-67
2023/01/28 00:18:13;;;;;;;35.10;14.80;;;-1.80;99.90;;;;;;4166130;28;20455;-67
2023/01/28 00:20:14;;;;;;;37.00;14.97;;;-1.80;99.90;;;;;;4147212;28;20185;-68
2023/01/28 00:22:15;;;;;;;36.97;14.10;;;-1.80;99.90;;;;;;4165053;28;20515;-67
2023/01/28 00:24:16;;;;;;;43.47;16.30;;;-1.80;99.90;;;;;;4131055;28;20444;-67
2023/01/28 00:26:17;;;;;;;25.53;12.20;;;-2.00;99.90;;;;;;4164770;28;20224;-67
2023/01/28 00:28:18;;;;;;;27.57;12.40;;;-2.10;99.90;;;;;;4147115;28;20894;-69
2023/01/28 00:30:20;;;;;;;31.07;13.00;;;-2.00;99.90;;;;;;4164611;28;20437;-68
2023/01/28 00:32:21;;;;;;;32.37;13.60;;;-1.90;99.90;;;;;;4147044;28;20225;-67
2023/01/28 00:34:22;;;;;;;28.17;12.67;;;-1.80;99.90;;;;;;4147002;28;20519;-67
2023/01/28 00:36:24;;;;;;;34.77;15.67;;;-1.80;99.90;;;;;;4147147;28;20193;-67
2023/01/28 00:38:26;;;;;;;27.23;14.43;;;-1.90;99.90;;;;;;4131280;28;20237;-67
2023/01/28 00:40:27;;;;;;;33.43;13.17;;;-2.00;99.90;;;;;;4147456;28;20436;-67
2023/01/28 00:42:29;;;;;;;31.97;13.43;;;-2.10;99.90;;;;;;4164449;28;20801;-69
2023/01/28 00:44:30;;;;;;;39.83;14.33;;;-2.10;99.90;;;;;;4165106;28;20239;-68
2023/01/28 00:46:31;;;;;;;30.93;12.57;;;-2.10;99.90;;;;;;4165246;28;20412;-67
2023/01/28 00:48:36;;;;;;;32.77;13.10;;;-2.00;99.90;;;;;;4147043;28;20608;-67
2023/01/28 00:50:39;;;;;;;33.20;14.03;;;-2.00;99.90;;;;;;4145030;28;20236;-67
2023/01/28 00:52:40;;;;;;;26.87;12.47;;;-2.10;99.90;;;;;;4164635;28;20435;-68
2023/01/28 00:54:41;;;;;;;27.37;11.53;;;-2.20;99.90;;;;;;4147232;28;20435;-68
2023/01/28 00:56:42;;;;;;;27.57;12.40;;;-2.20;99.90;;;;;;4146701;28;20185;-67
2023/01/28 00:58:43;;;;;;;29.07;11.83;;;-2.10;99.90;;;;;;4164705;28;21247;-67
2023/01/28 01:00:44;;;;;;;24.83;11.13;;;-2.10;99.90;;;;;;4130091;28;20441;-69
2023/01/28 01:02:45;;;;;;;24.27;12.23;;;-2.10;99.90;;;;;;4130568;28;20808;-69
2023/01/28 01:04:53;;;;;;;27.57;12.40;;;-1.90;99.90;;;;;;4164157;28;20614;-68
2023/01/28 01:06:54;;;;;;;31.50;13.63;;;-1.90;99.90;;;;;;4131299;28;20240;-68
2023/01/28 01:08:55;;;;;;;25.80;11.53;;;-1.90;99.90;;;;;;4146196;28;20480;-68
2023/01/28 01:10:58;;;;;;;30.07;12.67;;;-1.90;99.90;;;;;;4145979;28;20229;-68
2023/01/28 01:13:00;;;;;;;27.37;12.40;;;-1.90;99.90;;;;;;4146530;28;20189;-68
2023/01/28 01:15:01;;;;;;;33.80;12.67;;;-2.00;99.90;;;;;;4146535;28;20451;-68
2023/01/28 01:17:02;;;;;;;29.43;12.30;;;-2.00;99.90;;;;;;4146513;28;20483;-68
2023/01/28 01:19:02;;;;;;;27.73;12.07;;;-2.00;99.90;;;;;;4146230;28;20889;-68
2023/01/28 01:21:12;;;;;;;26.50;11.57;;;-2.00;99.90;;;;;;4163728;28;20200;-69
2023/01/28 01:23:13;;;;;;;28.33;13.00;;;-2.00;99.90;;;;;;4146444;28;20200;-68
2023/01/28 01:25:16;;;;;;;23.87;11.47;;;-1.90;99.90;;;;;;4164201;28;20458;-68
2023/01/28 01:27:17;;;;;;;22.60;11.00;;;-2.00;99.90;;;;;;4131662;28;20202;-68
2023/01/28 01:29:18;;;;;;;21.67;11.63;;;-1.90;99.90;;;;;;4146506;28;20487;-68
2023/01/28 01:31:20;;;;;;;21.87;12.13;;;-1.90;99.90;;;;;;4146274;28;20960;-68
2023/01/28 01:33:21;;;;;;;21.30;9.80;;;-1.90;99.90;;;;;;4130101;28;20200;-68
2023/01/28 01:35:22;;;;;;;25.43;11.33;;;-1.80;99.90;;;;;;4130023;28;20446;-68
2023/01/28 01:37:23;;;;;;;22.37;10.27;;;-1.90;99.90;;;;;;4146436;28;20221;-68
2023/01/28 01:39:24;;;;;;;25.00;11.60;;;-2.00;99.90;;;;;;4163822;28;20498;-68
2023/01/28 01:41:28;;;;;;;25.33;11.53;;;-2.00;99.90;;;;;;4163850;28;20220;-68
2023/01/28 01:43:54;;;;;;;21.63;11.43;;;-1.90;99.90;;;;;;4129956;28;20273;-69
2023/01/28 01:46:00;;;;;;;29.47;12.77;;;-1.80;99.90;;;;;;4162584;28;20416;-66
2023/01/28 01:48:13;;;;;;;28.43;12.07;;;-1.90;99.90;;;;;;4146074;28;20816;-67
2023/01/28 01:50:31;;;;;;;22.20;11.23;;;-1.90;99.90;;;;;;4145916;28;20471;-67
2023/01/28 01:52:35;;;;;;;26.43;13.40;;;-2.10;99.90;;;;;;4145891;28;20455;-67
2023/01/28 01:54:40;;;;;;;23.10;11.43;;;-2.30;99.90;;;;;;4146381;28;20447;-67
2023/01/28 01:56:44;;;;;;;31.40;13.60;;;-2.30;99.90;;;;;;4129746;28;20567;-67
2023/01/28 01:58:49;;;;;;;27.87;12.47;;;-2.00;99.90;;;;;;4163921;28;20454;-68
2023/01/28 02:00:50;;;;;;;23.50;11.37;;;-2.10;99.90;;;;;;4139204;28;20854;-67
2023/01/28 02:02:52;;;;;;;31.60;13.53;;;-2.00;99.90;;;;;;4129711;28;20444;-67
2023/01/28 02:04:53;;;;;;;24.07;12.37;;;-1.90;99.90;;;;;;4113751;28;20601;-67
2023/01/28 02:06:54;;;;;;;23.53;10.27;;;-1.90;99.90;;;;;;4147307;28;20432;-67
2023/01/28 02:08:56;;;;;;;25.87;12.30;;;-2.00;99.90;;;;;;4129573;28;20352;-67
2023/01/28 02:11:07;;;;;;;25.73;12.73;;;-2.00;99.90;;;;;;4146863;28;20518;-67
2023/01/28 02:13:07;;;;;;;22.00;10.80;;;-2.00;99.90;;;;;;4113665;28;20445;-67
2023/01/28 02:15:14;;;;;;;27.50;12.53;;;-2.00;99.90;;;;;;4151318;28;20427;-67
2023/01/28 02:17:16;;;;;;;24.03;12.23;;;-1.80;99.90;;;;;;4145972;28;20186;-67
2023/01/28 02:19:19;;;;;;;22.93;10.97;;;-1.80;99.90;;;;;;4129801;28;20524;-68
2023/01/28 02:21:49;;;;;;;18.53;9.17;;;-1.80;99.90;;;;;;4148194;28;20468;-67
2023/01/28 02:24:22;;;;;;;21.40;10.50;;;-1.90;99.90;;;;;;4145967;28;20452;-66
2023/01/28 02:26:44;;;;;;;20.27;9.87;;;-2.00;99.90;;;;;;4154545;28;20440;-68
2023/01/28 02:29:14;;;;;;;20.70;10.23;;;-2.10;99.90;;;;;;4166188;28;20530;-67
2023/01/28 02:31:29;;;;;;;24.00;12.27;;;-1.90;99.90;;;;;;4145550;28;20539;-67
2023/01/28 02:33:40;;;;;;;23.83;10.80;;;-2.00;99.90;;;;;;4145584;28;20455;-68
2023/01/28 02:35:49;;;;;;;26.97;13.70;;;-2.00;99.90;;;;;;4129389;28;20933;-67
2023/01/28 02:38:00;;;;;;;23.43;12.33;;;-2.00;99.90;;;;;;4129505;28;20976;-68
2023/01/28 02:40:10;;;;;;;24.50;11.93;;;-2.20;99.90;;;;;;4128839;28;20448;-68
2023/01/28 02:42:31;;;;;;;22.40;11.53;;;-2.10;99.90;;;;;;4145591;28;20420;-68
2023/01/28 02:44:32;;;;;;;23.63;11.07;;;-2.10;99.90;;;;;;4129036;28;20905;-67
2023/01/28 02:48:56;;;;;;;25.43;11.33;;;-2.00;99.90;;;;;;4163558;28;20497;-68
2023/01/28 02:51:19;;;;;;;29.10;13.73;;;-1.90;99.90;;;;;;4145025;28;20571;-68
2023/01/28 02:53:40;;;;;;;22.33;10.97;;;-2.00;99.90;;;;;;4129180;28;20528;-67
2023/01/28 02:56:17;;;;;;;22.40;11.47;;;-2.00;99.90;;;;;;4129084;28;20948;-67
2023/01/28 02:58:57;;;;;;;32.53;11.30;;;-1.90;99.90;;;;;;4163233;28;20936;-67
2023/01/28 03:01:22;;;;;;;21.53;10.07;;;-1.80;99.90;;;;;;4162881;28;20957;-67
2023/01/28 03:03:32;;;;;;;21.30;11.27;;;-2.00;99.90;;;;;;4145359;28;20436;-68
2023/01/28 03:06:02;;;;;;;21.77;11.10;;;-1.90;99.90;;;;;;4162992;28;20790;-68
2023/01/28 03:09:21;;;;;;;22.87;12.03;;;-2.00;99.90;;;;;;4148204;28;20819;-67
2023/01/28 03:10:27;;;;;;;22.87;10.47;;;-2.20;99.90;;;;;;4147792;28;20983;-68
2023/01/28 03:36:52;;;;;;;21.07;11.40;;;-2.20;99.90;;;;;;4146645;28;20411;-68
2023/01/28 03:38:52;;;;;;;23.17;11.57;;;-2.10;99.90;;;;;;4129256;28;20497;-67
2023/01/28 03:40:59;;;;;;;22.67;10.83;;;-2.10;99.90;;;;;;4113269;28;20442;-68
2023/01/28 03:43:00;;;;;;;27.47;12.30;;;-2.10;99.90;;;;;;4148173;28;20197;-68
2023/01/28 03:45:03;;;;;;;24.03;10.87;;;-2.20;99.90;;;;;;4149134;28;20433;-67
2023/01/28 03:47:06;;;;;;;25.17;12.50;;;-2.30;99.90;;;;;;4131651;28;20243;-68
2023/01/28 03:49:07;;;;;;;20.00;9.80;;;-2.20;99.90;;;;;;4131758;28;20468;-67
2023/01/28 03:51:07;;;;;;;20.93;10.67;;;-2.10;99.90;;;;;;4149338;28;20478;-68
2023/01/28 03:53:11;;;;;;;18.23;10.20;;;-2.30;99.90;;;;;;4148934;28;20468;-67
2023/01/28 03:55:12;;;;;;;19.67;9.90;;;-2.20;99.90;;;;;;4148861;28;20185;-68
2023/01/28 03:57:19;;;;;;;20.33;10.57;;;-2.20;99.90;;;;;;4148120;28;20428;-67
2023/01/28 03:59:20;;;;;;;16.83;9.33;;;-2.10;99.90;;;;;;4164892;28;20181;-67
2023/01/28 04:01:20;;;;;;;16.50;8.30;;;-2.00;99.90;;;;;;4149014;28;20447;-67
2023/01/28 04:03:21;;;;;;;19.67;9.53;;;-1.80;99.90;;;;;;4164176;28;20494;-68
2023/01/28 04:05:22;;;;;;;18.43;9.27;;;-1.90;99.90;;;;;;4131743;28;20196;-67
2023/01/28 04:07:23;;;;;;;15.80;8.40;;;-2.00;99.90;;;;;;4131274;28;20269;-68
2023/01/28 04:09:24;;;;;;;18.33;9.20;;;-2.00;99.90;;;;;;4131205;28;20210;-68
2023/01/28 04:11:25;;;;;;;18.30;9.63;;;-1.90;99.90;;;;;;4130829;28;20228;-67
2023/01/28 04:13:26;;;;;;;19.37;10.13;;;-2.00;99.90;;;;;;4149036;28;20425;-68
2023/01/28 04:15:27;;;;;;;23.63;10.53;;;-2.10;99.90;;;;;;4147213;28;20968;-68
2023/01/28 04:17:28;;;;;;;17.63;8.83;;;-2.30;99.90;;;;;;4153201;28;20188;-67
2023/01/28 04:19:30;;;;;;;17.27;9.70;;;-2.30;99.90;;;;;;4165124;28;20185;-68
2023/01/28 04:21:32;;;;;;;18.87;9.40;;;-2.20;99.90;;;;;;4147295;28;20197;-68
2023/01/28 04:23:33;;;;;;;20.33;9.63;;;-2.00;99.90;;;;;;4165584;28;20961;-67
2023/01/28 04:25:34;;;;;;;20.97;10.13;;;-2.10;99.90;;;;;;4164255;28;20442;-68
2023/01/28 04:27:35;;;;;;;19.33;9.53;;;-2.00;99.90;;;;;;4180520;28;20196;-68
2023/01/28 04:29:36;;;;;;;18.20;9.23;;;-2.10;99.90;;;;;;4131689;28;20499;-68
2023/01/28 04:31:37;;;;;;;17.73;9.10;;;-2.10;99.90;;;;;;4146970;28;20308;-68
2023/01/28 04:33:37;;;;;;;16.30;8.30;;;-2.00;99.90;;;;;;4147574;28;20664;-68
2023/01/28 04:35:38;;;;;;;20.50;9.97;;;-2.00;99.90;;;;;;4163394;28;20189;-67
2023/01/28 04:37:43;;;;;;;22.00;10.37;;;-1.90;99.90;;;;;;4168057;28;20236;-68
2023/01/28 04:39:43;;;;;;;19.70;9.77;;;-1.90;99.90;;;;;;4157156;28;20432;-68
2023/01/28 04:41:44;;;;;;;17.23;8.27;;;-2.00;99.90;;;;;;4165781;28;20436;-67
2023/01/28 04:43:45;;;;;;;18.57;8.60;;;-1.90;99.90;;;;;;4164415;28;20197;-68
2023/01/28 04:45:47;;;;;;;20.83;8.90;;;-1.80;99.90;;;;;;4165416;28;20269;-68
2023/01/28 04:47:48;;;;;;;21.03;10.40;;;-1.80;99.90;;;;;;4165713;28;20675;-68
2023/01/28 04:49:50;;;;;;;20.70;8.97;;;-1.90;99.90;;;;;;4164822;28;20488;-68
2023/01/28 04:51:51;;;;;;;16.43;8.43;;;-1.90;99.90;;;;;;4146720;28;20571;-67
2023/01/28 04:53:51;;;;;;;16.57;8.00;;;-1.90;99.90;;;;;;4130121;28;20924;-68
2023/01/28 04:55:52;;;;;;;17.10;8.43;;;-1.90;99.90;;;;;;4163789;28;20641;-67
2023/01/28 04:57:53;;;;;;;16.40;8.73;;;-2.00;99.90;;;;;;4146893;28;20216;-67
2023/01/28 04:59:53;;;;;;;16.00;7.57;;;-1.90;99.90;;;;;;4146701;28;20189;-68
2023/01/28 05:01:54;;;;;;;18.77;9.50;;;-1.90;99.90;;;;;;4164142;28;20196;-67
2023/01/28 05:03:55;;;;;;;15.30;7.73;;;-1.90;99.90;;;;;;4164648;28;20196;-67
2023/01/28 05:05:55;;;;;;;16.40;8.73;;;-1.90;99.90;;;;;;4164479;28;20204;-67
2023/01/28 05:07:58;;;;;;;19.60;8.53;;;-1.90;99.90;;;;;;4164307;28;20685;-67
2023/01/28 05:09:58;;;;;;;21.70;9.47;;;-2.00;99.90;;;;;;4164142;28;20247;-68
2023/01/28 05:11:59;;;;;;;18.43;8.80;;;-1.90;99.90;;;;;;4129786;28;20465;-67
2023/01/28 05:14:01;;;;;;;13.67;7.80;;;-2.10;99.90;;;;;;4127848;28;20302;-67
2023/01/28 05:16:02;;;;;;;13.67;8.00;;;-1.90;99.90;;;;;;4127056;28;20190;-68
2023/01/28 05:18:02;;;;;;;12.27;7.50;;;-1.70;99.90;;;;;;4146141;28;20539;-68
2023/01/28 05:20:06;;;;;;;15.37;7.37;;;-1.70;99.90;;;;;;4147648;28;20185;-67
2023/01/28 05:22:07;;;;;;;19.07;8.43;;;-1.80;99.90;;;;;;4148122;28;20216;-67
2023/01/28 05:24:08;;;;;;;16.57;7.90;;;-1.80;99.90;;;;;;4147928;28;20424;-67
2023/01/28 05:26:10;;;;;;;18.43;7.93;;;-2.00;99.90;;;;;;4147364;28;20281;-67
2023/01/28 05:28:10;;;;;;;17.30;8.17;;;-2.00;99.90;;;;;;4148274;28;20213;-68
2023/01/28 05:30:12;;;;;;;14.23;7.97;;;-1.90;99.90;;;;;;4147043;28;20432;-67
2023/01/28 05:32:13;;;;;;;15.77;8.37;;;-1.80;99.90;;;;;;4147735;28;20213;-68
2023/01/28 05:34:13;;;;;;;17.50;8.63;;;-1.80;99.90;;;;;;4130300;28;20960;-68
2023/01/28 05:36:16;;;;;;;19.00;8.83;;;-1.70;99.90;;;;;;4129884;28;20290;-68
2023/01/28 05:38:16;;;;;;;15.60;8.20;;;-1.70;99.90;;;;;;4147722;28;20288;-68
2023/01/28 05:40:17;;;;;;;14.67;7.40;;;-1.90;99.90;;;;;;4113326;28;20434;-68
2023/01/28 05:42:19;;;;;;;19.87;8.33;;;-1.80;99.90;;;;;;4147187;28;20190;-68
2023/01/28 05:44:20;;;;;;;10.53;6.50;;;-2.00;99.90;;;;;;4129837;28;20190;-68
2023/01/28 05:46:21;;;;;;;11.33;6.70;;;-1.90;99.90;;;;;;4145683;28;20535;-68
2023/01/28 05:48:22;;;;;;;14.13;7.23;;;-1.80;99.90;;;;;;4114599;28;20217;-68
2023/01/28 05:50:23;;;;;;;12.33;6.87;;;-2.00;99.90;;;;;;4113146;28;20426;-68
2023/01/28 05:52:23;;;;;;;15.63;7.47;;;-2.00;99.90;;;;;;4129878;28;20342;-68
2023/01/28 05:54:24;;;;;;;16.67;8.10;;;-1.90;99.90;;;;;;4113806;28;20198;-68
2023/01/28 05:56:25;;;;;;;14.27;7.43;;;-1.80;99.90;;;;;;4147489;28;20363;-68
2023/01/28 05:58:29;;;;;;;15.57;7.03;;;-1.80;99.90;;;;;;4113625;28;20202;-68
2023/01/28 06:00:30;;;;;;;13.47;6.43;;;-2.00;99.90;;;;;;4147218;28;20598;-68
2023/01/28 06:02:31;;;;;;;11.17;7.00;;;-2.10;99.90;;;;;;4147384;28;20516;-69
2023/01/28 06:04:32;;;;;;;12.17;7.00;;;-2.00;99.90;;;;;;4129065;28;20190;-66
2023/01/28 06:06:32;;;;;;;12.90;7.00;;;-2.00;99.90;;;;;;4129810;28;20547;-67
2023/01/28 06:08:33;;;;;;;13.57;7.40;;;-1.90;99.90;;;;;;4147296;28;20870;-67
2023/01/28 06:10:34;;;;;;;13.73;7.30;;;-1.80;99.90;;;;;;4131768;28;20174;-67
2023/01/28 06:12:35;;;;;;;12.43;6.10;;;-1.80;99.90;;;;;;4146976;28;20725;-67
2023/01/28 06:14:36;;;;;;;11.70;6.07;;;-2.00;99.90;;;;;;4147150;28;20197;-67
2023/01/28 06:16:36;;;;;;;10.77;5.67;;;-2.10;99.90;;;;;;4113336;28;20469;-67
2023/01/28 06:18:37;;;;;;;11.93;5.43;;;-2.20;99.90;;;;;;4129434;28;20675;-67
2023/01/28 06:20:38;;;;;;;10.17;5.47;;;-2.10;99.90;;;;;;4146613;28;20176;-67
2023/01/28 06:22:39;;;;;;;9.77;4.90;;;-2.10;99.90;;;;;;4129828;28;20441;-67
2023/01/28 06:24:39;;;;;;;11.57;5.40;;;-2.20;99.90;;;;;;4129796;28;20766;-67
2023/01/28 06:26:40;;;;;;;9.67;6.07;;;-2.20;99.90;;;;;;4145871;28;20182;-67
2023/01/28 06:28:41;;;;;;;8.40;4.53;;;-2.20;99.90;;;;;;4148638;28;20197;-68
2023/01/28 06:30:41;;;;;;;11.47;5.57;;;-2.20;99.90;;;;;;4128935;28;20190;-67
2023/01/28 06:32:43;;;;;;;7.53;4.20;;;-2.20;99.90;;;;;;4147576;28;20189;-67
2023/01/28 06:34:44;;;;;;;6.70;4.00;;;-2.10;99.90;;;;;;4129353;28;20581;-68
2023/01/28 06:36:45;;;;;;;7.20;4.03;;;-2.10;99.90;;;;;;4130167;28;20487;-68
2023/01/28 06:38:46;;;;;;;9.53;5.17;;;-2.00;99.90;;;;;;4114592;28;20445;-67
2023/01/28 06:40:54;;;;;;;8.23;4.70;;;-1.90;99.90;;;;;;4146567;28;20201;-68
2023/01/28 06:42:56;;;;;;;9.50;5.03;;;-1.90;99.90;;;;;;4127040;28;20193;-68
2023/01/28 06:44:56;;;;;;;7.37;4.47;;;-2.00;99.90;;;;;;4146875;28;20428;-68
2023/01/28 06:46:57;;;;;;;8.57;4.80;;;-2.00;99.90;;;;;;4129622;28;21005;-67
2023/01/28 06:48:58;;;;;;;9.40;5.10;;;-2.00;99.90;;;;;;4146919;28;20320;-68
2023/01/28 06:50:59;;;;;;;10.83;5.77;;;-2.10;99.90;;;;;;4135867;28;20190;-67
2023/01/28 06:52:59;;;;;;;13.60;6.10;;;-2.00;99.90;;;;;;4135455;28;20217;-67
2023/01/28 06:55:00;;;;;;;12.93;7.80;;;-1.90;99.90;;;;;;4146898;28;20748;-68
2023/01/28 06:57:01;;;;;;;15.10;7.33;;;-1.70;99.90;;;;;;4146597;28;20463;-67
2023/01/28 06:59:02;;;;;;;9.77;5.33;;;-1.70;99.90;;;;;;4129481;28;20210;-67
2023/01/28 07:01:03;;;;;;;9.87;5.90;;;-1.90;99.90;;;;;;4129075;28;20186;-68
2023/01/28 07:03:04;;;;;;;11.23;5.67;;;-1.80;99.90;;;;;;4146849;28;20189;-68
2023/01/28 07:05:05;;;;;;;13.63;6.47;;;-1.70;99.90;;;;;;4113052;28;20285;-68
2023/01/28 07:07:07;;;;;;;18.13;8.37;;;-1.70;99.90;;;;;;4112995;28;21022;-68
2023/01/28 07:09:08;;;;;;;12.20;6.33;;;-1.60;99.90;;;;;;4145646;28;20495;-68
2023/01/28 07:11:09;;;;;;;8.90;5.17;;;-1.70;99.90;;;;;;4128868;28;20476;-67
2023/01/28 07:13:10;;;;;;;8.90;5.27;;;-1.70;99.90;;;;;;4129737;28;20441;-67
2023/01/28 07:15:11;;;;;;;11.10;6.10;;;-1.80;99.90;;;;;;4113819;28;20191;-68
2023/01/28 07:17:11;;;;;;;10.70;5.43;;;-1.80;99.90;;;;;;4148504;28;20213;-68
2023/01/28 07:19:12;;;;;;;8.83;5.43;;;-1.90;99.90;;;;;;4132396;28;20706;-68
2023/01/28 07:21:13;;;;;;;11.30;6.50;;;-1.70;99.90;;;;;;4149855;28;20248;-68
2023/01/28 07:23:14;;;;;;;9.90;5.60;;;-1.80;99.90;;;;;;4150281;28;20220;-69
2023/01/28 07:25:15;;;;;;;7.87;5.07;;;-1.80;99.90;;;;;;4150157;28;21119;-68
2023/01/28 07:27:16;;;;;;;8.60;5.23;;;-1.70;99.90;;;;;;4133361;28;20186;-67
2023/01/28 07:29:16;;;;;;;7.47;4.77;;;-1.50;99.90;;;;;;4116857;28;20461;-68
2023/01/28 07:31:20;;;;;;;6.77;4.67;;;-1.50;99.90;;;;;;4149188;28;20237;-69
2023/01/28 07:33:21;;;;;;;8.93;4.73;;;-1.60;99.90;;;;;;4139697;28;20218;-67
2023/01/28 07:35:23;;;;;;;11.07;6.13;;;-1.70;99.90;;;;;;4145988;28;20515;-69
2023/01/28 07:37:24;;;;;;;9.60;5.37;;;-1.60;99.90;;;;;;4135169;28;20213;-69
2023/01/28 07:39:24;;;;;;;12.63;5.60;;;-1.40;99.90;;;;;;4150397;28;20464;-69
2023/01/28 07:41:27;;;;;;;10.20;5.33;;;-1.40;99.90;;;;;;4132207;28;20193;-68
2023/01/28 07:43:27;;;;;;;10.90;5.93;;;-1.30;99.90;;;;;;4132308;28;20198;-68
2023/01/28 07:45:29;;;;;;;11.07;6.40;;;-1.40;99.90;;;;;;4119323;28;20441;-69
2023/01/28 07:47:30;;;;;;;9.77;5.60;;;-1.40;99.90;;;;;;4148076;28;20193;-69
2023/01/28 07:49:33;;;;;;;10.83;5.77;;;-1.60;99.90;;;;;;4147662;28;20444;-68
2023/01/28 07:51:34;;;;;;;10.80;6.17;;;-1.60;99.90;;;;;;4152302;28;20300;-68
2023/01/28 07:53:35;;;;;;;12.50;7.30;;;-1.70;99.90;;;;;;4149533;28;20786;-69
2023/01/28 07:55:37;;;;;;;10.63;5.90;;;-1.60;99.90;;;;;;4149571;28;20789;-68
2023/01/28 07:57:54;;;;;;;9.70;6.10;;;-1.60;99.90;;;;;;4131639;28;20430;-69
2023/01/28 07:59:55;;;;;;;9.60;5.10;;;-1.40;99.90;;;;;;4148066;28;20971;-68
2023/01/28 08:01:56;;;;;;;10.83;5.90;;;-1.40;99.90;;;;;;4147832;28;20472;-67
2023/01/28 08:03:57;;;;;;;10.40;6.00;;;-1.30;99.90;;;;;;4149355;28;20181;-68
2023/01/28 08:05:58;;;;;;;10.70;6.07;;;-1.50;99.90;;;;;;4149438;28;20586;-67
2023/01/28 08:07:58;;;;;;;12.33;6.63;;;-1.70;99.90;;;;;;4149346;28;20221;-68
2023/01/28 08:09:59;;;;;;;12.83;6.57;;;-1.80;99.90;;;;;;4147705;28;20201;-70
2023/01/28 08:12:03;;;;;;;10.23;5.87;;;-1.70;99.90;;;;;;4149484;28;20218;-68
2023/01/28 08:14:04;;;;;;;9.63;5.93;;;-1.50;99.90;;;;;;4149652;28;20509;-70
2023/01/28 08:16:06;;;;;;;10.53;6.13;;;-1.50;99.90;;;;;;4149616;28;20433;-67
2023/01/28 08:18:12;;;;;;;9.20;5.07;;;-1.40;99.90;;;;;;4145741;28;20462;-67
2023/01/28 08:20:14;;;;;;;9.63;5.60;;;-1.30;99.90;;;;;;4126913;28;20423;-68
2023/01/28 08:22:15;;;;;;;10.20;5.97;;;-1.40;99.90;;;;;;4148767;28;21171;-69
2023/01/28 08:24:16;;;;;;;9.17;5.37;;;-1.50;99.90;;;;;;4129004;28;20441;-68
2023/01/28 08:26:17;;;;;;;9.57;5.53;;;-1.40;99.90;;;;;;4113145;28;20194;-68
2023/01/28 08:28:20;;;;;;;9.60;5.90;;;-1.30;99.90;;;;;;4138976;28;20462;-68
2023/01/28 08:30:21;;;;;;;7.60;4.77;;;-1.30;99.90;;;;;;4098992;29;20454;-68
2023/01/28 08:32:22;;;;;;;8.13;5.50;;;-1.10;99.90;;;;;;4133776;28;20952;-68
2023/01/28 08:34:22;;;;;;;8.43;5.57;;;-1.10;99.90;;;;;;4115351;28;20275;-68
2023/01/28 08:36:23;;;;;;;10.10;6.23;;;-0.90;99.90;;;;;;4132520;28;20552;-68
2023/01/28 08:38:25;;;;;;;23.63;9.87;;;-0.80;99.90;;;;;;4114988;28;20199;-67
2023/01/28 08:40:25;;;;;;;10.47;6.30;;;-1.00;99.90;;;;;;4132503;28;20951;-68
2023/01/28 08:42:26;;;;;;;12.93;6.87;;;-1.00;99.90;;;;;;4131022;28;20442;-68
2023/01/28 08:44:27;;;;;;;11.53;6.50;;;-1.00;99.90;;;;;;4115285;28;20195;-68
2023/01/28 08:46:27;;;;;;;12.53;6.67;;;-0.90;99.90;;;;;;4132489;28;20588;-68
2023/01/28 08:48:28;;;;;;;11.00;6.33;;;-1.00;99.90;;;;;;4114743;28;20289;-67
2023/01/28 08:50:33;;;;;;;9.07;5.50;;;-1.00;99.90;;;;;;4114783;28;20196;-67
2023/01/28 08:52:33;;;;;;;6.83;4.80;;;-0.90;99.90;;;;;;4133499;28;20213;-68
2023/01/28 08:54:35;;;;;;;10.53;5.60;;;-0.90;99.90;;;;;;4148191;28;20436;-69
2023/01/28 08:56:37;;;;;;;10.17;5.83;;;-1.00;99.90;;;;;;4148382;28;20232;-68
2023/01/28 08:58:39;;;;;;;9.37;5.43;;;-0.90;99.90;;;;;;4148359;28;20826;-68
2023/01/28 09:00:41;;;;;;;9.37;5.00;;;-0.80;99.90;;;;;;4130453;28;20433;-68
2023/01/28 09:02:41;;;;;;;11.93;6.93;;;-0.80;99.90;;;;;;4146615;28;20433;-68
2023/01/28 09:04:42;;;;;;;17.53;8.87;;;-0.70;99.90;;;;;;4148331;28;20606;-69
2023/01/28 09:06:43;;;;;;;11.50;6.83;;;-0.70;99.90;;;;;;4140170;28;20193;-68
2023/01/28 09:08:44;;;;;;;10.80;6.47;;;-0.60;99.90;;;;;;4124289;28;20480;-68
2023/01/28 09:10:45;;;;;;;17.27;10.63;;;-0.70;99.90;;;;;;4146426;28;20197;-69
2023/01/28 09:12:45;;;;;;;11.23;6.77;;;-0.60;99.90;;;;;;4148425;28;20174;-68
2023/01/28 09:14:46;;;;;;;10.50;6.47;;;-0.60;99.90;;;;;;4130713;28;20189;-68
2023/01/28 09:16:47;;;;;;;9.83;5.90;;;-0.50;99.90;;;;;;4114295;28;20613;-68
2023/01/28 09:18:48;;;;;;;10.70;6.60;;;-0.30;99.90;;;;;;4147928;28;20225;-68
2023/01/28 09:20:48;;;;;;;7.73;4.53;;;-0.30;99.90;;;;;;4147568;28;20185;-68
2023/01/28 09:22:49;;;;;;;7.47;5.10;;;-0.20;99.90;;;;;;4114130;28;20218;-68
2023/01/28 09:24:50;;;;;;;7.87;4.80;;;-0.30;99.90;;;;;;4162877;28;20190;-68
2023/01/28 09:26:50;;;;;;;7.40;4.70;;;-0.30;99.90;;;;;;4147451;28;20563;-68
2023/01/28 09:28:51;;;;;;;6.83;4.23;;;-0.20;99.90;;;;;;4130172;28;20205;-68
2023/01/28 09:30:52;;;;;;;8.07;4.57;;;-0.10;99.90;;;;;;4129857;28;20281;-68
2023/01/28 09:32:54;;;;;;;7.33;4.50;;;-0.10;99.90;;;;;;4147797;28;20194;-68
2023/01/28 09:34:55;;;;;;;8.20;5.60;;;0.00;99.90;;;;;;4113991;28;20873;-68
2023/01/28 09:36:56;;;;;;;9.53;5.87;;;0.10;99.90;;;;;;4146244;28;20517;-68
2023/01/28 09:38:57;;;;;;;8.97;5.50;;;0.00;99.90;;;;;;4147127;28;20677;-68
2023/01/28 09:40:59;;;;;;;10.87;5.80;;;0.10;99.90;;;;;;4129550;28;20192;-68
2023/01/28 09:43:26;;;;;;;8.63;5.03;;;0.20;99.90;;;;;;4131197;28;21083;-68
2023/01/28 09:45:42;;;;;;;7.70;4.50;;;0.40;99.90;;;;;;4130527;28;20475;-68
2023/01/28 09:47:52;;;;;;;8.20;4.77;;;0.30;99.90;;;;;;4129808;28;20536;-68
2023/01/28 09:49:55;;;;;;;8.87;6.37;;;0.30;99.90;;;;;;4129762;28;20422;-68
2023/01/28 09:51:56;;;;;;;9.93;6.07;;;0.30;99.90;;;;;;4113854;28;20575;-68
2023/01/28 09:54:05;;;;;;;9.77;5.47;;;0.10;99.90;;;;;;4147547;28;20429;-69
2023/01/28 09:56:17;;;;;;;6.73;4.40;;;0.00;99.90;;;;;;4108301;28;20258;-70
2023/01/28 09:58:18;;;;;;;8.40;5.60;;;0.20;99.90;;;;;;4126749;28;20978;-68
2023/01/28 10:00:24;;;;;;;8.53;5.50;;;0.50;99.90;;;;;;4140034;28;20502;-68
2023/01/28 10:02:55;;;;;;;8.47;5.43;;;0.60;99.90;;;;;;4137881;28;20191;-69
2023/01/28 10:05:23;;;;;;;7.50;4.77;;;0.80;99.90;;;;;;4135924;28;20459;-69
2023/01/28 10:07:51;;;;;;;7.23;4.47;;;0.80;99.90;;;;;;4144807;28;20541;-69
2023/01/28 10:10:26;;;;;;;8.03;4.87;;;0.70;99.90;;;;;;4129399;28;20440;-68
2023/01/28 10:12:38;;;;;;;7.80;4.73;;;0.90;99.90;;;;;;4112800;28;20525;-68
2023/01/28 10:15:18;;;;;;;9.33;6.27;;;0.70;99.90;;;;;;4112976;28;20436;-69
2023/01/28 10:17:28;;;;;;;8.17;4.57;;;0.70;99.90;;;;;;4128805;28;21007;-68
2023/01/28 10:19:40;;;;;;;6.80;4.40;;;1.00;99.90;;;;;;4145972;28;20810;-68
2023/01/28 10:21:46;;;;;;;8.93;5.03;;;1.10;99.40;;;;;;4115313;28;20449;-68
2023/01/28 10:24:22;;;;;;;8.27;5.30;;;1.20;98.80;;;;;;4115628;28;20453;-68
2023/01/28 10:26:29;;;;;;;6.97;4.90;;;1.60;98.30;;;;;;4149287;28;20438;-67
2023/01/28 10:28:32;;;;;;;7.30;5.40;;;1.30;98.00;;;;;;4147609;28;20515;-67
2023/01/28 10:30:37;;;;;;;8.27;4.90;;;1.30;99.50;;;;;;4121094;28;20973;-67
2023/01/28 10:33:05;;;;;;;9.03;5.33;;;1.40;98.60;;;;;;4122232;28;20480;-67
2023/01/28 10:35:06;;;;;;;7.93;4.20;;;1.50;97.50;;;;;;4117841;28;20543;-67
2023/01/28 10:37:12;;;;;;;6.77;4.40;;;1.50;98.20;;;;;;4158185;28;20438;-68
2023/01/28 10:39:19;;;;;;;10.10;6.37;;;1.70;97.40;;;;;;4115409;28;20449;-67
2023/01/28 10:41:21;;;;;;;8.27;5.10;;;1.70;96.80;;;;;;4143494;28;20518;-68
2023/01/28 10:43:25;;;;;;;8.33;5.17;;;1.60;96.90;;;;;;4113846;28;20438;-67
2023/01/28 10:45:31;;;;;;;8.00;5.20;;;1.40;97.30;;;;;;4111904;28;20433;-67
2023/01/28 10:47:43;;;;;;;7.77;5.17;;;1.10;97.60;;;;;;4112739;28;20446;-67
2023/01/28 10:49:52;;;;;;;9.67;5.83;;;1.10;98.90;;;;;;4129279;28;20413;-66
2023/01/28 10:51:53;;;;;;;7.93;5.07;;;1.20;98.80;;;;;;4115712;28;20497;-68
2023/01/28 10:53:53;;;;;;;8.00;4.97;;;1.20;98.60;;;;;;4136548;28;20415;-67
2023/01/28 10:55:59;;;;;;;8.57;5.17;;;1.30;98.70;;;;;;4149357;28;20195;-67
2023/01/28 10:58:03;;;;;;;8.40;4.80;;;1.40;99.00;;;;;;4128017;28;20368;-66
2023/01/28 11:00:19;;;;;;;9.30;5.50;;;1.30;98.40;;;;;;4119813;28;20518;-67
2023/01/28 11:02:32;;;;;;;7.90;5.43;;;1.40;98.40;;;;;;4145385;28;20482;-68
2023/01/28 11:04:34;;;;;;;7.87;5.30;;;1.70;98.00;;;;;;4108135;28;20452;-68
2023/01/28 11:06:35;;;;;;;6.90;4.83;;;1.90;96.40;;;;;;4156897;28;20976;-68